Time;durP1;ratioP1;P1;durP2;ratioP2;P2;SDS_P1;SDS_P2;PMS_P1;PMS_P2;Temp;Humidity;BMP_temperature;BMP_pressure;BME280_temperature;BME280_humidity;BME280_pressure;Samples;Min_cycle;Max_cycle;Signal;HPM_P1;HPM_P2
2023/01/31 00:00:46;;;;;;;23.90;3.97;;;3.80;99.90;;;;;;5053147;28;20082;-84
2023/01/31 00:03:12;;;;;;;15.83;3.23;;;3.70;99.90;;;;;;5035068;28;20053;-84
2023/01/31 00:05:37;;;;;;;20.40;3.70;;;3.70;99.90;;;;;;5051610;28;20497;-84
2023/01/31 00:08:03;;;;;;;24.73;3.50;;;3.70;99.90;;;;;;5035348;28;20029;-85
2023/01/31 00:10:29;;;;;;;32.33;4.83;;;3.70;99.90;;;;;;5053767;28;20082;-84
2023/01/31 00:12:56;;;;;;;22.87;3.53;;;3.60;99.90;;;;;;5056094;28;20504;-85
2023/01/31 00:15:22;;;;;;;18.30;3.43;;;3.60;99.90;;;;;;5057891;28;20028;-85
2023/01/31 00:17:47;;;;;;;22.07;2.93;;;3.80;99.90;;;;;;5056707;28;20108;-85
2023/01/31 00:20:13;;;;;;;21.70;3.30;;;3.60;99.90;;;;;;5039773;28;20060;-85
2023/01/31 00:22:39;;;;;;;21.37;3.20;;;3.60;99.90;;;;;;5039800;28;20469;-85
2023/01/31 00:25:05;;;;;;;18.63;2.93;;;3.60;99.90;;;;;;5039210;28;20565;-83
2023/01/31 00:27:31;;;;;;;13.83;3.13;;;3.60;99.90;;;;;;5039478;28;20098;-84
2023/01/31 00:29:57;;;;;;;16.03;2.23;;;3.50;99.90;;;;;;5056668;28;20481;-85
2023/01/31 00:32:25;;;;;;;14.47;2.50;;;3.50;99.90;;;;;;5038846;28;20115;-85
2023/01/31 00:34:54;;;;;;;22.87;3.50;;;3.50;99.90;;;;;;5039564;28;20029;-83
2023/01/31 00:37:20;;;;;;;17.07;3.00;;;3.50;99.90;;;;;;5056904;28;20091;-85
2023/01/31 00:39:46;;;;;;;15.03;2.37;;;3.40;99.90;;;;;;5055926;28;20045;-85
2023/01/31 00:42:12;;;;;;;21.57;3.63;;;3.40;99.90;;;;;;5060484;28;20025;-84
2023/01/31 00:44:37;;;;;;;13.77;2.60;;;3.40;99.90;;;;;;5063892;28;20032;-84
2023/01/31 00:47:03;;;;;;;20.30;2.47;;;3.40;99.90;;;;;;5058381;28;20061;-85
2023/01/31 00:49:29;;;;;;;15.43;2.13;;;3.30;99.90;;;;;;5055365;28;20376;-85
2023/01/31 00:51:54;;;;;;;23.20;3.23;;;3.30;99.90;;;;;;5056379;28;20025;-86
2023/01/31 00:54:20;;;;;;;19.20;2.30;;;3.30;99.90;;;;;;5055634;28;20587;-86
2023/01/31 00:56:46;;;;;;;14.33;2.57;;;3.20;99.90;;;;;;5039206;28;20032;-86
2023/01/31 00:59:11;;;;;;;11.83;2.03;;;3.20;99.90;;;;;;5056840;28;20039;-86
2023/01/31 01:01:37;;;;;;;19.70;2.60;;;3.20;99.90;;;;;;5039260;28;20036;-85
2023/01/31 01:04:03;;;;;;;16.13;2.93;;;3.20;99.90;;;;;;5039002;28;20457;-85
2023/01/31 01:06:29;;;;;;;12.87;2.17;;;3.10;99.90;;;;;;5055464;28;20021;-87
2023/01/31 01:08:56;;;;;;;22.57;3.13;;;3.00;99.90;;;;;;5055333;28;20048;-87
2023/01/31 01:11:28;;;;;;;15.33;2.33;;;3.00;99.90;;;;;;5055950;28;20473;-87
2023/01/31 01:13:55;;;;;;;21.83;2.27;;;3.00;99.90;;;;;;5056027;28;20021;-87
2023/01/31 01:16:27;;;;;;;14.43;2.67;;;3.00;99.90;;;;;;5055983;28;20029;-88
2023/01/31 01:18:56;;;;;;;18.47;2.83;;;3.00;99.90;;;;;;5055185;28;20215;-86
2023/01/31 01:21:24;;;;;;;20.00;3.27;;;3.00;99.90;;;;;;5054057;28;20025;-85
2023/01/31 01:23:50;;;;;;;15.17;2.23;;;2.90;99.90;;;;;;5056594;28;20028;-85
2023/01/31 01:26:25;;;;;;;21.67;2.63;;;2.90;99.90;;;;;;5056312;28;20025;-84
2023/01/31 01:28:53;;;;;;;10.33;1.90;;;2.90;99.90;;;;;;5055501;28;20075;-86
2023/01/31 01:31:19;;;;;;;12.63;2.60;;;2.90;99.90;;;;;;5055020;28;20024;-86
2023/01/31 01:33:47;;;;;;;13.40;2.53;;;2.90;99.90;;;;;;5056055;28;20049;-84
2023/01/31 01:36:16;;;;;;;14.83;2.23;;;2.90;99.90;;;;;;5055582;28;20104;-85
2023/01/31 01:38:43;;;;;;;9.50;2.03;;;2.90;99.90;;;;;;5054730;28;20025;-83
2023/01/31 01:41:10;;;;;;;13.57;2.17;;;2.80;99.90;;;;;;5054579;28;20029;-85
2023/01/31 01:43:57;;;;;;;12.80;2.47;;;2.80;99.90;;;;;;5055593;28;20064;-85
2023/01/31 01:46:37;;;;;;;20.93;2.67;;;2.80;99.90;;;;;;5055321;28;20028;-82
2023/01/31 01:49:21;;;;;;;20.50;2.07;;;2.80;99.90;;;;;;5054394;28;20017;-84
2023/01/31 01:51:50;;;;;;;12.07;1.92;;;2.80;99.90;;;;;;5055458;28;20029;-84
2023/01/31 01:54:22;;;;;;;19.67;1.93;;;2.80;99.90;;;;;;5054668;28;20029;-84
2023/01/31 01:56:52;;;;;;;17.13;2.00;;;2.80;99.90;;;;;;5054130;28;20416;-85
2023/01/31 01:59:27;;;;;;;17.30;1.90;;;2.80;99.90;;;;;;5055950;28;20028;-84
2023/01/31 02:01:55;;;;;;;11.17;1.53;;;2.80;99.90;;;;;;5055183;28;20029;-83
2023/01/31 02:04:25;;;;;;;16.97;1.50;;;2.80;99.90;;;;;;5053956;28;20029;-85
2023/01/31 02:06:51;;;;;;;8.67;1.57;;;2.80;99.90;;;;;;5065261;28;20024;-85
2023/01/31 02:09:51;;;;;;;12.87;2.20;;;2.70;99.90;;;;;;5072463;28;20037;-83
2023/01/31 02:12:17;;;;;;;20.63;2.50;;;2.70;99.90;;;;;;5072664;28;20029;-86
2023/01/31 02:14:45;;;;;;;17.97;2.30;;;2.70;99.90;;;;;;5073638;28;20062;-86
2023/01/31 02:17:17;;;;;;;12.83;1.60;;;2.90;99.90;;;;;;5075512;28;20031;-86
2023/01/31 02:19:49;;;;;;;19.43;2.40;;;2.80;99.90;;;;;;5074110;28;20027;-85
2023/01/31 02:22:44;;;;;;;11.93;2.17;;;2.80;99.90;;;;;;5075555;28;20141;-84
2023/01/31 02:25:13;;;;;;;10.30;1.70;;;2.80;99.90;;;;;;5075252;28;20051;-86
2023/01/31 02:27:45;;;;;;;13.67;2.10;;;2.90;99.90;;;;;;5075122;28;20047;-86
2023/01/31 02:30:33;;;;;;;15.13;2.07;;;2.90;99.90;;;;;;5074474;28;20064;-85
2023/01/31 02:33:23;;;;;;;16.20;2.33;;;2.90;99.90;;;;;;5075504;28;20047;-86
2023/01/31 02:36:06;;;;;;;16.97;2.33;;;3.00;99.90;;;;;;5073982;28;20123;-86
2023/01/31 02:38:57;;;;;;;15.50;2.08;;;3.10;99.90;;;;;;5074737;28;20036;-86
2023/01/31 02:41:40;;;;;;;12.97;2.27;;;3.10;99.90;;;;;;5075285;28;20020;-85
2023/01/31 02:47:10;;;;;;;12.07;2.60;;;3.20;99.90;;;;;;5076308;28;20063;-86
2023/01/31 02:49:51;;;;;;;11.40;1.80;;;3.20;99.90;;;;;;5075003;28;20033;-87
2023/01/31 02:52:23;;;;;;;12.90;2.43;;;3.30;99.90;;;;;;5087519;28;20020;-87
2023/01/31 02:57:58;;;;;;;11.23;3.03;;;3.40;99.90;;;;;;5080958;28;20051;-87
2023/01/31 03:00:26;;;;;;;11.73;1.80;;;3.40;99.90;;;;;;5077249;28;20055;-85
2023/01/31 03:02:52;;;;;;;11.13;2.17;;;3.50;99.90;;;;;;5075986;28;20127;-87
2023/01/31 03:05:19;;;;;;;12.33;1.87;;;3.50;99.90;;;;;;5074689;28;20025;-87
2023/01/31 03:07:59;;;;;;;19.67;2.90;;;3.60;99.90;;;;;;5074858;28;20029;-87
2023/01/31 03:10:39;;;;;;;14.40;2.60;;;3.50;99.90;;;;;;5073877;28;20074;-87
2023/01/31 03:13:27;;;;;;;12.57;2.20;;;3.50;99.90;;;;;;5074741;28;20043;-88
2023/01/31 03:19:17;;;;;;;12.63;3.00;;;3.60;99.90;;;;;;5074893;28;20466;-86
2023/01/31 03:21:47;;;;;;;20.30;2.70;;;3.70;99.90;;;;;;5073153;28;20067;-86
2023/01/31 03:24:16;;;;;;;18.70;2.93;;;3.70;99.90;;;;;;5072668;28;20016;-85
2023/01/31 03:26:43;;;;;;;22.57;4.17;;;3.80;99.90;;;;;;5072793;28;20483;-84
2023/01/31 03:29:13;;;;;;;18.07;3.83;;;3.80;99.90;;;;;;5055543;28;20035;-84
2023/01/31 03:31:46;;;;;;;21.53;3.90;;;3.80;99.90;;;;;;5074093;28;20028;-86
2023/01/31 03:34:14;;;;;;;17.00;4.53;;;3.90;99.90;;;;;;5072523;28;20021;-86
2023/01/31 03:37:11;;;;;;;20.87;4.13;;;3.90;99.90;;;;;;5072834;28;20111;-87
2023/01/31 03:39:40;;;;;;;22.87;4.33;;;4.00;99.90;;;;;;5073213;28;20463;-87
2023/01/31 03:42:12;;;;;;;32.87;5.87;;;4.00;99.90;;;;;;5072970;28;20024;-85
2023/01/31 03:45:01;;;;;;;24.63;4.40;;;4.10;99.90;;;;;;5073039;28;20042;-85
2023/01/31 03:47:34;;;;;;;20.07;4.67;;;4.10;99.90;;;;;;5072240;28;20035;-83
2023/01/31 03:50:22;;;;;;;21.17;4.00;;;4.10;99.90;;;;;;5073970;28;20037;-85
2023/01/31 03:53:01;;;;;;;20.00;5.87;;;4.10;99.90;;;;;;5071672;28;20036;-84
2023/01/31 03:55:33;;;;;;;24.27;5.43;;;4.20;99.90;;;;;;5073548;28;20027;-84
2023/01/31 03:58:02;;;;;;;17.33;5.63;;;4.20;99.90;;;;;;5072365;28;20043;-85
2023/01/31 04:00:28;;;;;;;26.23;6.07;;;4.20;99.90;;;;;;5072256;28;20043;-86
2023/01/31 04:03:03;;;;;;;25.30;6.00;;;4.30;99.90;;;;;;5072069;28;20048;-86
2023/01/31 04:05:31;;;;;;;28.10;5.90;;;4.30;99.90;;;;;;5073211;28;20103;-85
2023/01/31 04:07:59;;;;;;;21.50;5.23;;;4.30;99.90;;;;;;5061002;28;20115;-84
2023/01/31 04:10:25;;;;;;;24.40;5.90;;;4.30;99.90;;;;;;5053252;28;20040;-85
2023/01/31 04:12:51;;;;;;;20.47;6.37;;;4.30;99.90;;;;;;5051988;28;21128;-84
2023/01/31 04:15:17;;;;;;;19.93;6.43;;;4.40;99.90;;;;;;5051950;28;20027;-84
2023/01/31 04:17:43;;;;;;;21.93;6.77;;;4.30;99.90;;;;;;5052991;28;20029;-83
2023/01/31 04:20:09;;;;;;;30.70;7.43;;;4.30;99.90;;;;;;5035248;28;20025;-83
2023/01/31 04:22:35;;;;;;;29.07;7.37;;;4.30;99.90;;;;;;5051412;28;20500;-83
2023/01/31 04:25:00;;;;;;;26.37;7.43;;;4.30;99.90;;;;;;5035217;28;20033;-83
2023/01/31 04:27:27;;;;;;;25.47;6.80;;;4.30;99.90;;;;;;5035150;28;20583;-83
2023/01/31 04:29:52;;;;;;;27.60;6.93;;;4.30;99.90;;;;;;5052907;28;20080;-83
2023/01/31 04:32:18;;;;;;;22.43;7.13;;;4.30;99.90;;;;;;5051886;28;20052;-84
2023/01/31 04:34:43;;;;;;;24.13;7.87;;;4.30;99.90;;;;;;5051427;28;20104;-84
2023/01/31 04:37:09;;;;;;;17.00;6.00;;;4.30;99.90;;;;;;5051159;28;20029;-81
2023/01/31 04:39:35;;;;;;;26.23;7.87;;;4.30;99.90;;;;;;5035186;28;20270;-84
2023/01/31 04:42:00;;;;;;;21.40;7.80;;;4.40;99.90;;;;;;5052760;28;20377;-83
2023/01/31 04:44:26;;;;;;;29.37;7.53;;;4.30;99.90;;;;;;5053178;28;20029;-84
2023/01/31 04:46:52;;;;;;;24.37;7.73;;;4.30;99.90;;;;;;5051475;28;20419;-83
2023/01/31 04:49:18;;;;;;;33.77;9.13;;;4.30;99.90;;;;;;5051678;28;20037;-84
2023/01/31 04:51:43;;;;;;;33.60;9.83;;;4.30;99.90;;;;;;5051702;28;20064;-84
2023/01/31 04:54:09;;;;;;;25.77;8.13;;;4.40;99.90;;;;;;5052049;28;20067;-85
2023/01/31 04:56:35;;;;;;;29.80;7.37;;;4.30;99.90;;;;;;5055364;28;20092;-83
2023/01/31 04:59:00;;;;;;;31.60;8.87;;;4.30;99.90;;;;;;5040449;28;20025;-85
2023/01/31 05:01:27;;;;;;;27.73;8.37;;;4.30;99.90;;;;;;5054657;28;20029;-85
2023/01/31 05:03:53;;;;;;;22.63;8.23;;;4.40;99.90;;;;;;5066672;28;20539;-84
2023/01/31 05:06:19;;;;;;;29.60;8.70;;;4.40;99.90;;;;;;5057537;28;20037;-83
2023/01/31 05:08:44;;;;;;;23.77;8.47;;;4.40;99.90;;;;;;5041183;28;20033;-85
2023/01/31 05:11:10;;;;;;;24.77;9.23;;;4.40;99.90;;;;;;5057080;28;20041;-84
2023/01/31 05:13:39;;;;;;;26.87;7.87;;;4.40;99.90;;;;;;5057340;28;20032;-82
2023/01/31 05:16:07;;;;;;;21.47;9.13;;;4.40;99.90;;;;;;5056901;28;20025;-84
2023/01/31 05:18:34;;;;;;;28.37;9.07;;;4.40;99.90;;;;;;5038481;28;20481;-83
2023/01/31 05:21:01;;;;;;;28.23;8.97;;;4.40;99.90;;;;;;5038255;28;20494;-84
2023/01/31 05:23:26;;;;;;;28.37;9.83;;;4.40;99.90;;;;;;5038144;28;20017;-83
2023/01/31 05:25:52;;;;;;;30.97;9.57;;;4.40;99.90;;;;;;5054978;28;20039;-83
2023/01/31 05:28:18;;;;;;;30.17;9.77;;;4.40;99.90;;;;;;5037828;28;20029;-83
2023/01/31 05:30:43;;;;;;;32.37;10.03;;;4.50;99.90;;;;;;5054672;28;20087;-85
2023/01/31 05:33:09;;;;;;;27.07;9.53;;;4.50;99.90;;;;;;5054942;28;20028;-85
2023/01/31 05:35:34;;;;;;;28.43;9.63;;;4.50;99.90;;;;;;5054741;28;20428;-84
2023/01/31 05:38:00;;;;;;;31.80;10.60;;;4.50;99.90;;;;;;5038687;28;20489;-84
2023/01/31 05:40:26;;;;;;;37.07;11.00;;;4.50;99.90;;;;;;5055870;28;20032;-85
2023/01/31 05:42:59;;;;;;;30.67;10.03;;;4.50;99.90;;;;;;5037612;28;20086;-82
2023/01/31 05:45:25;;;;;;;27.63;10.70;;;4.50;99.90;;;;;;5055873;28;20017;-82
2023/01/31 05:47:51;;;;;;;36.80;10.37;;;4.60;99.90;;;;;;5054536;28;20087;-84
2023/01/31 05:50:17;;;;;;;32.53;10.13;;;4.50;99.90;;;;;;5053938;28;20041;-83
2023/01/31 05:52:43;;;;;;;38.03;11.77;;;4.50;99.90;;;;;;5037568;28;20025;-84
2023/01/31 05:55:08;;;;;;;38.07;9.83;;;4.60;99.90;;;;;;5053863;28;20025;-83
2023/01/31 05:57:34;;;;;;;31.77;11.07;;;4.60;99.90;;;;;;5054246;28;20021;-83
2023/01/31 06:00:00;;;;;;;36.67;10.27;;;4.60;99.90;;;;;;5054087;28;20032;-82
2023/01/31 06:02:26;;;;;;;29.60;10.07;;;4.60;99.90;;;;;;5037753;28;20048;-83
2023/01/31 06:04:51;;;;;;;29.20;10.47;;;4.60;99.90;;;;;;5054390;28;20040;-83
2023/01/31 06:07:17;;;;;;;28.90;10.07;;;4.70;99.90;;;;;;5053732;28;20033;-82
2023/01/31 06:09:43;;;;;;;39.47;11.13;;;4.70;99.90;;;;;;5038208;28;20094;-83
2023/01/31 06:12:13;;;;;;;34.40;11.07;;;4.80;99.90;;;;;;5037358;28;20507;-81
2023/01/31 06:14:39;;;;;;;30.67;11.57;;;4.70;99.90;;;;;;5054281;28;20024;-84
2023/01/31 06:17:05;;;;;;;35.17;12.97;;;4.80;99.90;;;;;;5037377;28;20029;-79
2023/01/31 06:19:33;;;;;;;29.13;11.53;;;4.80;99.90;;;;;;5053598;28;20428;-83
2023/01/31 06:21:59;;;;;;;35.30;11.43;;;4.90;99.90;;;;;;5027147;28;20021;-80
2023/01/31 06:24:25;;;;;;;31.33;10.80;;;4.80;99.90;;;;;;5043351;28;20371;-81
2023/01/31 06:26:50;;;;;;;33.07;10.63;;;4.90;99.90;;;;;;5036302;28;20033;-81
2023/01/31 06:29:16;;;;;;;29.50;9.97;;;4.90;99.90;;;;;;5034205;28;20033;-81
2023/01/31 06:31:45;;;;;;;28.63;9.97;;;4.90;99.90;;;;;;5037198;28;20094;-81
2023/01/31 06:34:11;;;;;;;30.90;10.23;;;4.90;99.90;;;;;;5033469;28;20029;-81
2023/01/31 06:36:36;;;;;;;30.77;11.07;;;4.90;99.90;;;;;;5058358;28;20031;-82
2023/01/31 06:39:03;;;;;;;27.10;10.47;;;5.00;99.90;;;;;;5059994;28;20029;-83
2023/01/31 06:41:29;;;;;;;36.47;11.30;;;4.90;99.90;;;;;;5072629;28;20085;-82
2023/01/31 06:43:55;;;;;;;28.40;9.73;;;4.80;99.90;;;;;;5039375;28;20025;-82
2023/01/31 06:46:21;;;;;;;29.67;10.23;;;5.00;99.90;;;;;;5030894;28;20033;-82
2023/01/31 06:48:49;;;;;;;27.43;10.07;;;5.00;99.90;;;;;;5031892;28;20385;-83
2023/01/31 06:51:15;;;;;;;27.97;9.83;;;5.00;99.90;;;;;;5034043;28;20038;-82
2023/01/31 06:53:41;;;;;;;34.30;11.83;;;5.00;99.90;;;;;;5032935;28;20493;-84
2023/01/31 06:56:07;;;;;;;28.50;10.30;;;5.00;99.90;;;;;;5032605;28;20025;-84
2023/01/31 06:58:33;;;;;;;29.83;10.40;;;5.10;99.90;;;;;;5032995;28;20433;-83
2023/01/31 07:01:07;;;;;;;30.83;10.23;;;5.10;99.90;;;;;;5033064;28;20030;-83
2023/01/31 07:03:33;;;;;;;26.35;10.63;;;5.10;99.90;;;;;;5032464;28;20104;-83
2023/01/31 07:05:58;;;;;;;26.67;10.67;;;5.20;99.90;;;;;;5032364;28;20033;-82
2023/01/31 07:08:24;;;;;;;28.43;11.07;;;5.20;99.90;;;;;;5022330;28;20363;-83
2023/01/31 07:10:50;;;;;;;37.53;11.40;;;5.20;99.90;;;;;;5050164;28;20045;-83
2023/01/31 07:13:15;;;;;;;36.60;11.60;;;5.20;99.90;;;;;;5049921;28;20398;-83
2023/01/31 07:15:41;;;;;;;32.10;10.60;;;5.20;99.90;;;;;;5032719;28;20026;-84
2023/01/31 07:18:07;;;;;;;34.13;11.27;;;5.20;99.90;;;;;;5049697;28;20037;-83
2023/01/31 07:20:33;;;;;;;26.10;10.30;;;5.20;99.90;;;;;;5031435;28;20025;-83
2023/01/31 07:22:59;;;;;;;27.23;10.27;;;5.20;99.90;;;;;;5049194;28;20517;-83
2023/01/31 07:25:25;;;;;;;30.23;10.40;;;5.20;99.90;;;;;;5033273;28;20136;-84
2023/01/31 07:27:51;;;;;;;24.77;10.73;;;5.20;99.90;;;;;;5033296;28;20475;-83
2023/01/31 07:30:17;;;;;;;32.53;10.53;;;5.20;99.90;;;;;;5032142;28;20090;-83
2023/01/31 07:32:43;;;;;;;30.43;9.77;;;5.20;99.90;;;;;;5048987;28;20030;-83
2023/01/31 07:35:09;;;;;;;29.20;10.77;;;5.30;99.90;;;;;;5032045;28;20116;-83
2023/01/31 07:37:35;;;;;;;31.73;11.67;;;5.20;99.90;;;;;;5033931;28;20044;-83
2023/01/31 07:40:00;;;;;;;36.57;9.90;;;5.30;99.90;;;;;;5032009;28;20034;-83
2023/01/31 07:42:27;;;;;;;26.80;10.20;;;5.30;99.90;;;;;;5031887;28;20033;-81
2023/01/31 07:44:53;;;;;;;29.63;9.97;;;5.20;99.90;;;;;;5048776;28;20470;-83
2023/01/31 07:47:19;;;;;;;31.80;9.47;;;5.30;99.90;;;;;;5048359;28;20445;-83
2023/01/31 07:49:45;;;;;;;30.90;10.50;;;5.30;99.90;;;;;;5032009;28;20077;-83
2023/01/31 07:52:10;;;;;;;26.47;10.27;;;5.30;99.90;;;;;;5033595;28;20056;-84
2023/01/31 07:54:36;;;;;;;23.17;8.57;;;5.40;99.90;;;;;;5033166;28;20033;-83
2023/01/31 07:57:02;;;;;;;23.83;9.10;;;5.40;99.90;;;;;;5033283;28;20053;-83
2023/01/31 07:59:27;;;;;;;21.63;8.23;;;5.40;99.90;;;;;;5048583;28;20060;-83
2023/01/31 08:04:37;;;;;;;31.52;8.73;;;5.40;99.90;;;;;;5033177;28;20096;-84
2023/01/31 08:07:05;;;;;;;30.97;10.20;;;5.40;99.90;;;;;;5032737;28;20061;-83
2023/01/31 08:09:31;;;;;;;25.17;9.30;;;5.50;99.90;;;;;;5048198;28;20076;-84
2023/01/31 08:11:57;;;;;;;22.57;8.20;;;5.40;99.90;;;;;;5048696;28;20052;-83
2023/01/31 08:14:24;;;;;;;21.70;7.60;;;5.50;99.90;;;;;;5031517;28;20033;-82
2023/01/31 08:16:53;;;;;;;26.10;8.50;;;5.50;99.90;;;;;;5033229;28;20035;-84
2023/01/31 08:19:19;;;;;;;20.73;8.33;;;5.50;99.90;;;;;;5048435;28;20025;-82
2023/01/31 08:21:44;;;;;;;31.47;8.90;;;5.50;99.90;;;;;;5031583;28;20033;-83
2023/01/31 08:24:10;;;;;;;29.60;8.60;;;5.50;99.90;;;;;;5048820;28;20080;-83
2023/01/31 08:26:36;;;;;;;31.60;9.23;;;5.60;99.90;;;;;;5048043;28;20036;-83
2023/01/31 08:29:02;;;;;;;19.13;7.97;;;5.60;99.90;;;;;;5031726;28;20022;-84
2023/01/31 08:31:28;;;;;;;26.90;8.40;;;5.60;99.90;;;;;;5033896;28;20038;-84
2023/01/31 08:33:54;;;;;;;23.30;8.67;;;5.50;99.90;;;;;;5036212;28;20051;-83
2023/01/31 08:36:32;;;;;;;21.70;8.00;;;5.60;99.90;;;;;;5035046;28;20025;-83
2023/01/31 08:38:58;;;;;;;26.00;8.13;;;5.60;99.90;;;;;;5035294;28;20488;-83
2023/01/31 08:41:26;;;;;;;21.63;7.77;;;5.60;99.90;;;;;;5035488;28;20032;-84
2023/01/31 08:43:53;;;;;;;21.93;8.17;;;5.60;99.90;;;;;;5051648;28;20397;-83
2023/01/31 08:46:18;;;;;;;25.13;7.80;;;5.60;99.90;;;;;;5035546;28;20422;-83
2023/01/31 08:48:44;;;;;;;25.97;8.13;;;5.70;99.90;;;;;;5051982;28;20034;-83
2023/01/31 08:51:11;;;;;;;24.13;7.87;;;5.70;99.90;;;;;;5051563;28;20068;-82
2023/01/31 08:53:43;;;;;;;20.40;6.70;;;5.70;99.90;;;;;;5035383;28;20034;-83
2023/01/31 08:56:09;;;;;;;24.23;7.87;;;5.70;99.90;;;;;;5035689;28;20125;-84
2023/01/31 08:58:37;;;;;;;24.30;7.63;;;5.80;99.90;;;;;;5035435;28;20033;-84
2023/01/31 09:01:06;;;;;;;21.40;8.70;;;5.80;99.90;;;;;;5051832;28;20452;-84
2023/01/31 09:03:32;;;;;;;25.03;7.63;;;5.80;99.90;;;;;;5034700;28;20125;-83
2023/01/31 09:06:04;;;;;;;25.73;6.70;;;5.80;99.90;;;;;;5034700;28;20465;-83
2023/01/31 09:08:30;;;;;;;21.13;7.90;;;5.90;99.90;;;;;;5035229;28;20025;-83
2023/01/31 09:10:59;;;;;;;23.00;6.83;;;5.90;99.90;;;;;;5035015;28;20107;-83
2023/01/31 09:13:25;;;;;;;28.10;7.50;;;5.90;99.90;;;;;;5051235;28;20021;-84
2023/01/31 09:15:59;;;;;;;28.40;8.20;;;5.90;99.90;;;;;;5034492;28;20025;-83
2023/01/31 09:18:26;;;;;;;23.17;6.77;;;6.00;99.90;;;;;;5036099;28;20079;-82
2023/01/31 09:20:52;;;;;;;22.33;7.47;;;5.90;99.90;;;;;;5037281;28;20025;-84
2023/01/31 09:23:18;;;;;;;17.70;6.17;;;6.00;99.90;;;;;;5036513;28;20022;-83
2023/01/31 09:25:51;;;;;;;19.37;6.17;;;5.90;99.90;;;;;;5036292;28;20049;-83
2023/01/31 09:28:16;;;;;;;25.30;7.80;;;6.00;99.90;;;;;;5051242;28;20060;-83
2023/01/31 09:30:42;;;;;;;20.23;6.37;;;6.00;99.90;;;;;;5050869;28;20073;-83
2023/01/31 09:33:08;;;;;;;22.47;7.80;;;6.00;99.90;;;;;;5034673;28;20036;-84
2023/01/31 09:35:33;;;;;;;22.83;7.10;;;6.00;99.90;;;;;;5036058;28;20059;-83
2023/01/31 09:37:59;;;;;;;19.70;6.80;;;6.00;99.90;;;;;;5036310;28;20465;-83
2023/01/31 09:40:29;;;;;;;26.83;7.57;;;6.10;99.90;;;;;;5035706;28;20095;-84
2023/01/31 09:42:55;;;;;;;26.47;7.07;;;6.10;99.90;;;;;;5037153;28;20021;-83
2023/01/31 09:45:38;;;;;;;20.27;6.53;;;6.10;99.90;;;;;;5052382;28;20520;-84
2023/01/31 09:48:05;;;;;;;22.47;7.53;;;6.10;99.90;;;;;;5036262;28;20470;-82
2023/01/31 09:50:49;;;;;;;22.93;6.80;;;6.10;99.90;;;;;;5050603;28;20060;-83
2023/01/31 09:53:20;;;;;;;25.57;6.40;;;6.10;99.90;;;;;;5034119;28;20037;-83
2023/01/31 09:56:30;;;;;;;20.00;6.20;;;6.20;99.90;;;;;;5035733;28;20101;-82
2023/01/31 09:59:03;;;;;;;16.50;5.50;;;6.20;99.90;;;;;;5034052;28;20064;-83
2023/01/31 10:01:48;;;;;;;17.00;6.55;;;6.20;99.90;;;;;;5035167;28;20068;-83
2023/01/31 10:04:23;;;;;;;20.42;6.20;;;6.20;99.90;;;;;;5033722;28;20038;-83
2023/01/31 10:07:03;;;;;;;22.80;6.70;;;6.20;99.90;;;;;;5049861;28;20078;-82
2023/01/31 10:09:41;;;;;;;25.40;6.70;;;6.30;99.90;;;;;;5052644;28;20094;-82
2023/01/31 10:12:18;;;;;;;19.67;6.27;;;6.30;99.90;;;;;;5053579;28;20033;-82
2023/01/31 10:14:54;;;;;;;19.37;6.63;;;6.30;99.90;;;;;;5052857;28;20025;-83
2023/01/31 10:17:37;;;;;;;18.57;5.23;;;6.40;99.90;;;;;;5055315;28;20029;-83
2023/01/31 10:20:32;;;;;;;18.03;6.33;;;6.40;99.90;;;;;;5052837;28;20021;-83
2023/01/31 10:23:18;;;;;;;26.77;7.77;;;6.40;99.90;;;;;;5054443;28;20037;-83
2023/01/31 10:25:54;;;;;;;19.70;6.63;;;6.40;99.90;;;;;;5054400;28;20056;-83
2023/01/31 10:28:20;;;;;;;18.97;5.20;;;6.50;99.90;;;;;;5053369;28;20112;-84
2023/01/31 10:31:01;;;;;;;23.03;5.93;;;6.50;99.90;;;;;;5053157;28;20128;-83
2023/01/31 10:33:42;;;;;;;21.67;5.60;;;6.60;99.90;;;;;;5052864;28;20032;-83
2023/01/31 10:36:21;;;;;;;21.93;5.37;;;6.60;99.90;;;;;;5053883;28;20465;-84
2023/01/31 10:39:20;;;;;;;22.83;5.87;;;6.60;99.90;;;;;;5054362;28;20082;-83
2023/01/31 10:42:14;;;;;;;25.67;5.90;;;6.70;99.90;;;;;;5050497;28;20485;-82
2023/01/31 10:44:52;;;;;;;17.67;5.80;;;6.70;99.90;;;;;;5053278;28;20491;-83
2023/01/31 10:47:19;;;;;;;22.07;5.50;;;6.70;99.90;;;;;;5053033;28;20111;-82
2023/01/31 10:49:48;;;;;;;19.50;6.37;;;6.80;99.90;;;;;;5054634;28;20040;-84
2023/01/31 10:52:27;;;;;;;20.80;6.00;;;6.80;99.90;;;;;;5052666;28;20029;-83
2023/01/31 10:55:06;;;;;;;18.33;5.80;;;6.90;99.90;;;;;;5052595;28;20029;-83
2023/01/31 10:57:32;;;;;;;24.77;6.83;;;6.90;99.90;;;;;;5053212;28;20132;-82
2023/01/31 10:59:58;;;;;;;20.73;6.70;;;6.90;99.90;;;;;;5053087;28;20033;-83
2023/01/31 11:02:28;;;;;;;17.23;6.50;;;7.10;99.90;;;;;;5035733;28;20079;-81
2023/01/31 11:04:58;;;;;;;25.03;7.40;;;7.00;99.90;;;;;;5054098;28;20040;-82
2023/01/31 11:07:29;;;;;;;25.00;6.73;;;7.00;99.90;;;;;;5054214;28;20470;-83
2023/01/31 11:09:55;;;;;;;24.57;6.33;;;7.10;99.90;;;;;;5035932;28;20058;-83
2023/01/31 11:12:50;;;;;;;22.87;7.40;;;7.10;99.90;;;;;;5053698;28;20025;-83
2023/01/31 11:15:18;;;;;;;23.97;8.37;;;7.20;99.90;;;;;;5052481;28;20476;-83
2023/01/31 11:17:46;;;;;;;22.07;7.50;;;7.20;99.90;;;;;;5036520;28;20029;-83
2023/01/31 11:20:27;;;;;;;23.43;7.50;;;7.20;99.90;;;;;;5019763;28;20033;-83
2023/01/31 11:22:54;;;;;;;29.73;8.33;;;7.30;99.90;;;;;;5052097;28;20055;-83
2023/01/31 11:25:22;;;;;;;24.80;7.50;;;7.30;99.90;;;;;;5054733;28;20040;-82
2023/01/31 11:27:51;;;;;;;18.27;7.03;;;7.30;99.90;;;;;;5053955;28;20074;-83
2023/01/31 11:30:30;;;;;;;32.10;8.03;;;7.30;99.90;;;;;;5052580;28;20036;-83
2023/01/31 11:32:57;;;;;;;23.20;7.53;;;7.30;99.90;;;;;;5053478;28;20033;-82
2023/01/31 11:35:33;;;;;;;19.77;7.20;;;7.40;99.90;;;;;;5052056;28;20033;-84
2023/01/31 11:38:02;;;;;;;20.73;8.00;;;7.30;99.90;;;;;;5052015;28;20021;-83
2023/01/31 11:40:36;;;;;;;19.93;7.13;;;7.30;99.90;;;;;;5052522;28;20025;-83
2023/01/31 11:43:22;;;;;;;17.88;7.55;;;7.40;99.90;;;;;;5053312;28;20367;-83
2023/01/31 11:46:00;;;;;;;19.60;6.93;;;7.40;99.90;;;;;;5051960;28;20381;-83
2023/01/31 11:48:38;;;;;;;25.30;6.73;;;7.50;99.90;;;;;;5053239;28;20067;-83
2023/01/31 11:51:04;;;;;;;18.00;7.07;;;7.50;99.90;;;;;;5052294;28;20412;-82
2023/01/31 11:53:41;;;;;;;25.13;7.40;;;7.50;99.90;;;;;;5053101;28;20031;-84
2023/01/31 11:56:18;;;;;;;25.40;6.80;;;7.50;99.90;;;;;;5051830;28;20075;-83
2023/01/31 11:58:47;;;;;;;29.33;7.13;;;7.50;99.90;;;;;;5053558;28;20087;-83
2023/01/31 12:01:16;;;;;;;27.20;6.70;;;7.50;99.90;;;;;;5051443;28;20500;-84
2023/01/31 12:03:57;;;;;;;23.93;7.47;;;7.50;99.90;;;;;;5051664;28;20068;-82
2023/01/31 12:06:29;;;;;;;26.80;7.27;;;7.50;99.90;;;;;;5052101;28;20025;-82
2023/01/31 12:08:57;;;;;;;26.80;6.73;;;7.50;99.90;;;;;;5052166;28;20025;-82
2023/01/31 12:11:32;;;;;;;26.70;6.63;;;7.50;99.90;;;;;;5051779;28;20033;-83
2023/01/31 12:14:08;;;;;;;25.83;7.17;;;7.50;99.90;;;;;;5051792;28;20069;-84
2023/01/31 12:16:36;;;;;;;21.40;6.77;;;7.50;99.90;;;;;;5051913;28;20024;-83
2023/01/31 12:19:10;;;;;;;26.00;7.60;;;7.50;99.90;;;;;;5052133;28;20029;-82
2023/01/31 12:22:01;;;;;;;23.00;6.90;;;7.40;99.90;;;;;;5051528;28;20037;-83
2023/01/31 12:24:48;;;;;;;26.83;7.93;;;7.40;99.90;;;;;;5051620;28;20025;-83
2023/01/31 12:27:44;;;;;;;27.13;7.43;;;7.40;99.90;;;;;;5051368;28;20393;-83
2023/01/31 12:30:22;;;;;;;19.93;6.37;;;7.40;99.90;;;;;;5052941;28;20029;-82
2023/01/31 12:33:06;;;;;;;15.73;5.50;;;7.40;99.90;;;;;;5051809;28;20123;-82
2023/01/31 12:35:52;;;;;;;17.58;6.05;;;7.40;99.90;;;;;;5052448;28;20029;-81
2023/01/31 12:38:33;;;;;;;24.43;6.47;;;7.40;99.90;;;;;;5051123;28;20060;-84
2023/01/31 12:41:35;;;;;;;16.70;6.13;;;7.40;99.90;;;;;;5051595;28;20048;-82
2023/01/31 12:44:19;;;;;;;20.77;6.27;;;7.40;99.90;;;;;;5051542;28;20128;-83
2023/01/31 12:46:57;;;;;;;27.50;7.10;;;7.50;99.90;;;;;;5051320;28;20083;-81
2023/01/31 12:49:34;;;;;;;19.93;6.73;;;7.50;99.90;;;;;;5051344;28;20326;-83
2023/01/31 12:52:26;;;;;;;29.67;7.60;;;7.40;99.90;;;;;;5052644;28;20368;-84
2023/01/31 12:55:01;;;;;;;15.40;5.53;;;7.40;99.90;;;;;;5052584;28;20036;-83
2023/01/31 12:57:35;;;;;;;22.63;6.40;;;7.40;99.90;;;;;;5052577;28;20068;-83
2023/01/31 13:00:04;;;;;;;19.80;5.70;;;7.40;99.90;;;;;;5052630;28;20041;-84
2023/01/31 13:02:45;;;;;;;19.80;6.17;;;7.50;99.90;;;;;;5052337;28;20067;-83
2023/01/31 13:05:26;;;;;;;18.27;5.80;;;7.40;99.90;;;;;;5052143;28;20037;-83
2023/01/31 13:08:02;;;;;;;15.30;5.00;;;7.50;99.90;;;;;;5052229;28;20461;-83
2023/01/31 13:10:37;;;;;;;19.57;6.00;;;7.50;99.90;;;;;;5052469;28;20147;-83
2023/01/31 13:13:09;;;;;;;17.00;4.93;;;7.50;99.90;;;;;;5052746;28;20029;-82
2023/01/31 13:15:50;;;;;;;20.93;6.53;;;7.50;99.90;;;;;;5052110;28;20021;-83